Terminal Aerodrome Forecast
Issued by NWS Greer, SC

Home | Current Version | Previous Version | Text Only | Print | Product List | Glossary On
Versions: 1 2 3 4 5 6 7 8 9 10 11 12 13 14
000
FTUS42 KGSP 301700 RRA
TAFGSP
TAF
KGSP 301742Z 3018/3118 17005KT P6SM SCT035
     FM302000 17005KT P6SM BKN050
     FM310900 20003KT 5SM BR BKN070
     FM311200 20003KT P6SM SCT070=

USA.gov is the U.S. government's official web portal to all federal, state and local government web resources and services.